Time;durP1;ratioP1;P1;durP2;ratioP2;P2;SDS_P1;SDS_P2;PMS_P1;PMS_P2;Temp;Humidity;BMP_temperature;BMP_pressure;BME280_temperature;BME280_humidity;BME280_pressure;Samples;Min_cycle;Max_cycle;Signal;HPM_P1;HPM_P2
2023/03/21 00:01:27;;;;;;;29.98;18.05;;;;;;;10.57;100.00;101665.19;5047309;28;20112;-65
2023/03/21 00:03:52;;;;;;;27.85;19.33;;;;;;;10.68;100.00;101657.06;5048202;28;20025;-66
2023/03/21 00:06:18;;;;;;;27.20;18.92;;;;;;;10.66;100.00;101658.00;5047245;28;20354;-64
2023/03/21 00:08:43;;;;;;;27.20;19.08;;;;;;;10.69;100.00;101656.16;5048352;28;20052;-65
2023/03/21 00:11:10;;;;;;;32.78;19.67;;;;;;;10.64;100.00;101654.50;5047190;28;20549;-65
2023/03/21 00:13:37;;;;;;;28.20;19.70;;;;;;;10.53;100.00;101652.97;5030422;28;20021;-64
2023/03/21 00:16:14;;;;;;;24.58;18.92;;;;;;;10.53;100.00;101649.50;5047339;28;20524;-65
2023/03/21 00:18:40;;;;;;;27.58;19.63;;;;;;;10.58;100.00;101651.13;5048824;28;20029;-66
2023/03/21 00:21:07;;;;;;;28.10;19.05;;;;;;;10.60;100.00;101649.31;5047580;28;20044;-65
2023/03/21 00:23:33;;;;;;;33.03;19.90;;;;;;;10.48;100.00;101639.03;5029810;28;20039;-65
2023/03/21 00:25:59;;;;;;;36.13;20.13;;;;;;;10.69;100.00;101640.34;5047571;28;20470;-65
2023/03/21 00:28:25;;;;;;;36.72;20.00;;;;;;;10.70;100.00;101643.84;5046931;28;20033;-64
2023/03/21 00:30:50;;;;;;;30.95;21.40;;;;;;;10.36;100.00;101643.59;5047026;28;20025;-64
2023/03/21 00:33:19;;;;;;;29.38;20.58;;;;;;;10.23;100.00;101639.47;5047695;28;20032;-66
2023/03/21 00:35:46;;;;;;;27.40;21.60;;;;;;;10.22;100.00;101643.03;5047506;28;20025;-64
2023/03/21 00:38:12;;;;;;;32.42;20.67;;;;;;;10.17;100.00;101639.63;5047741;28;20039;-65
2023/03/21 00:40:38;;;;;;;30.10;20.10;;;;;;;10.17;100.00;101634.34;5047478;28;20040;-64
2023/03/21 00:43:03;;;;;;;37.38;21.65;;;;;;;10.11;100.00;101641.47;5047360;28;20024;-65
2023/03/21 00:45:28;;;;;;;30.02;20.13;;;;;;;10.09;100.00;101632.72;5046492;28;20108;-65
2023/03/21 00:47:54;;;;;;;31.15;20.13;;;;;;;10.10;100.00;101633.59;5029592;28;20064;-63
2023/03/21 00:50:19;;;;;;;29.23;18.98;;;;;;;10.11;100.00;101624.78;5046802;28;20055;-66
2023/03/21 00:52:45;;;;;;;33.10;19.92;;;;;;;10.07;100.00;101629.25;5046274;28;20027;-65
2023/03/21 00:55:14;;;;;;;28.85;19.38;;;;;;;10.10;100.00;101625.69;5044387;28;20067;-65
2023/03/21 00:57:41;;;;;;;30.27;19.73;;;;;;;10.08;100.00;101624.84;5046642;28;20163;-65
2023/03/21 01:00:09;;;;;;;26.52;19.63;;;;;;;10.03;100.00;101617.06;5046042;28;20582;-66
2023/03/21 01:02:36;;;;;;;31.23;20.75;;;;;;;10.03;100.00;101610.91;5047395;28;20104;-66
2023/03/21 01:05:03;;;;;;;34.28;19.77;;;;;;;9.99;100.00;101610.97;5047230;28;20025;-65
2023/03/21 01:07:28;;;;;;;26.40;19.70;;;;;;;10.01;100.00;101610.06;5046409;28;20405;-65
2023/03/21 01:09:53;;;;;;;30.48;20.10;;;;;;;10.01;100.00;101605.69;5047241;28;20021;-65
2023/03/21 01:12:19;;;;;;;29.15;19.10;;;;;;;9.97;100.00;101611.91;5046187;28;20056;-65
2023/03/21 01:14:44;;;;;;;27.83;20.30;;;;;;;10.13;100.00;101601.06;5046986;28;20029;-65
2023/03/21 01:17:09;;;;;;;32.15;22.25;;;;;;;10.33;100.00;101593.63;5028314;28;20054;-65
2023/03/21 01:19:35;;;;;;;33.65;22.65;;;;;;;10.36;100.00;101590.06;5047821;28;20044;-65
2023/03/21 01:22:00;;;;;;;36.90;22.38;;;;;;;10.35;100.00;101580.41;5046837;28;20098;-65
2023/03/21 01:24:26;;;;;;;33.88;21.90;;;;;;;10.40;100.00;101586.47;5046912;28;20400;-65
2023/03/21 01:26:51;;;;;;;32.38;22.73;;;;;;;10.43;100.00;101588.16;5046149;28;20495;-65
2023/03/21 01:29:16;;;;;;;33.53;23.30;;;;;;;10.44;100.00;101585.50;5046381;28;20039;-65
2023/03/21 01:31:41;;;;;;;39.60;23.40;;;;;;;10.41;100.00;101575.03;5046631;28;20021;-65
2023/03/21 01:34:07;;;;;;;33.33;22.10;;;;;;;10.51;100.00;101580.13;5046821;28;20029;-65
2023/03/21 01:36:32;;;;;;;37.22;22.70;;;;;;;10.47;100.00;101576.69;5046212;28;20040;-65
2023/03/21 01:38:58;;;;;;;35.70;22.23;;;;;;;10.50;100.00;101571.34;5046560;28;20032;-66
2023/03/21 01:41:31;;;;;;;42.40;23.70;;;;;;;10.43;100.00;101575.00;5028785;28;20025;-65
2023/03/21 01:43:56;;;;;;;35.00;20.98;;;;;;;10.31;100.00;101563.81;5045940;28;20037;-65
2023/03/21 01:46:31;;;;;;;43.55;21.67;;;;;;;10.47;100.00;101568.78;5046341;28;20027;-65
2023/03/21 01:49:01;;;;;;;37.13;22.42;;;;;;;10.42;100.00;101563.56;5043343;28;20381;-67
2023/03/21 01:51:27;;;;;;;38.38;21.25;;;;;;;10.42;100.00;101560.09;5045999;28;20025;-65
2023/03/21 01:53:52;;;;;;;36.95;22.90;;;;;;;10.46;100.00;101562.66;5046155;28;20041;-64
2023/03/21 01:56:30;;;;;;;41.17;21.05;;;;;;;10.47;100.00;101556.47;5046648;28;20026;-64
2023/03/21 01:59:10;;;;;;;35.40;20.70;;;;;;;10.54;100.00;101570.38;5045733;28;20040;-64
2023/03/21 02:01:37;;;;;;;35.75;21.08;;;;;;;10.52;100.00;101556.38;5029478;28;20021;-66
2023/03/21 02:04:07;;;;;;;32.22;20.58;;;;;;;10.52;100.00;101551.13;5107961;22;20123;-65
2023/03/21 02:06:39;;;;;;;33.90;20.10;;;;;;;10.43;100.00;101552.16;5028870;28;20034;-64
2023/03/21 02:09:08;;;;;;;35.53;19.92;;;;;;;10.47;100.00;101556.47;5026172;28;20036;-65
2023/03/21 02:11:34;;;;;;;;;;;;;;;10.56;100.00;101547.50;4994412;28;20470;-66
2023/03/21 02:13:59;;;;;;;28.85;17.85;;;;;;;10.46;100.00;101552.13;5026003;28;20003;-65
2023/03/21 02:16:24;;;;;;;34.80;17.65;;;;;;;10.47;100.00;101550.34;5030226;28;20017;-65
2023/03/21 02:18:58;;;;;;;29.60;16.38;;;;;;;10.41;100.00;101550.47;5029919;28;20432;-65
2023/03/21 02:21:47;;;;;;;29.45;16.63;;;;;;;10.40;100.00;101546.06;5012842;28;20473;-65
2023/03/21 02:24:40;;;;;;;25.75;15.32;;;;;;;10.46;100.00;101548.59;5012163;28;20029;-65
2023/03/21 02:27:12;;;;;;;23.58;14.82;;;;;;;10.51;100.00;101538.84;5030158;28;20385;-64
2023/03/21 02:29:54;;;;;;;26.88;14.25;;;;;;;10.35;100.00;101539.13;5030300;28;20471;-64
2023/03/21 02:32:57;;;;;;;26.55;14.38;;;;;;;10.36;100.00;101532.13;5029726;28;20033;-64
2023/03/21 02:35:43;;;;;;;20.85;13.35;;;;;;;10.38;100.00;101521.53;5030433;28;20037;-64
2023/03/21 02:38:23;;;;;;;21.35;12.32;;;;;;;10.34;100.00;101523.38;5022439;28;20045;-65
2023/03/21 02:40:49;;;;;;;22.58;12.88;;;;;;;9.96;100.00;101521.50;5012495;28;20036;-65
2023/03/21 02:43:29;;;;;;;23.55;12.15;;;;;;;9.85;100.00;101518.25;5027679;28;20021;-65
2023/03/21 02:46:06;;;;;;;21.83;12.25;;;;;;;9.88;100.00;101514.66;5029952;28;20084;-65
2023/03/21 02:48:38;;;;;;;23.33;12.13;;;;;;;9.83;100.00;101514.75;5028899;28;20466;-65
2023/03/21 02:51:04;;;;;;;22.50;11.52;;;;;;;9.89;100.00;101505.88;5012427;28;20026;-65
2023/03/21 02:53:33;;;;;;;31.75;12.38;;;;;;;9.88;100.00;101510.28;5029019;28;20493;-64
2023/03/21 02:55:59;;;;;;;19.63;11.45;;;;;;;9.89;100.00;101508.50;5028999;28;20493;-65
2023/03/21 02:58:26;;;;;;;20.52;12.23;;;;;;;9.89;100.00;101504.09;5009535;28;20033;-65
2023/03/21 03:00:54;;;;;;;19.60;11.88;;;;;;;9.83;100.00;101498.97;5011047;28;20035;-65
2023/03/21 03:03:19;;;;;;;24.98;12.15;;;;;;;9.79;100.00;101502.56;5029011;28;20511;-66
2023/03/21 03:05:48;;;;;;;18.95;12.13;;;;;;;9.85;100.00;101503.28;5030225;28;20025;-65
2023/03/21 03:08:51;;;;;;;21.23;11.93;;;;;;;9.86;100.00;101507.69;5011693;28;20076;-65
2023/03/21 03:11:35;;;;;;;23.90;12.63;;;;;;;9.92;100.00;101504.06;5029765;28;20132;-65
2023/03/21 03:14:32;;;;;;;24.80;11.82;;;;;;;9.92;100.00;101505.81;5028040;28;20034;-64
2023/03/21 03:17:06;;;;;;;27.02;12.43;;;;;;;9.93;100.00;101510.19;5028897;28;20072;-66
2023/03/21 03:19:35;;;;;;;25.80;12.43;;;;;;;9.93;100.00;101505.78;5029415;28;20604;-66
2023/03/21 03:22:11;;;;;;;30.50;12.10;;;;;;;9.96;100.00;101502.19;5011111;28;20029;-65
2023/03/21 03:24:43;;;;;;;29.77;12.93;;;;;;;10.01;100.00;101500.34;5029625;28;20068;-65
2023/03/21 03:27:18;;;;;;;30.33;12.90;;;;;;;9.99;100.00;101495.13;5010755;28;20029;-66
2023/03/21 03:29:46;;;;;;;21.77;11.60;;;;;;;9.98;100.00;101493.41;4994544;28;20489;-65
2023/03/21 03:32:14;;;;;;;22.08;12.95;;;;;;;10.51;100.00;101494.06;5028105;28;20022;-65
2023/03/21 03:34:43;;;;;;;21.85;12.35;;;;;;;10.67;100.00;101501.59;5029245;28;20117;-66
2023/03/21 03:37:13;;;;;;;22.52;11.10;;;;;;;10.73;100.00;101490.91;5010505;28;20113;-66
2023/03/21 03:39:46;;;;;;;22.67;11.73;;;;;;;10.63;100.00;101494.66;5010724;28;20030;-67
2023/03/21 03:42:28;;;;;;;17.40;11.25;;;;;;;10.70;100.00;101496.25;5028289;28;20026;-64
2023/03/21 03:44:53;;;;;;;26.45;12.05;;;;;;;10.66;100.00;101489.31;5010894;28;20037;-64
2023/03/21 03:47:37;;;;;;;24.83;11.32;;;;;;;10.79;100.00;101490.75;5010613;28;20025;-64
2023/03/21 03:50:15;;;;;;;23.55;10.73;;;;;;;10.82;100.00;101474.88;5028158;28;20044;-64
2023/03/21 03:52:45;;;;;;;20.83;10.80;;;;;;;10.74;100.00;101480.31;5011396;28;20033;-65
2023/03/21 03:55:13;;;;;;;24.33;10.60;;;;;;;10.79;100.00;101480.22;5028200;28;20021;-65
2023/03/21 03:57:39;;;;;;;24.55;10.50;;;;;;;10.78;100.00;101475.84;5010169;28;20068;-66
2023/03/21 04:00:11;;;;;;;27.73;10.70;;;;;;;10.85;100.00;101479.19;5029228;28;20029;-65
2023/03/21 04:02:36;;;;;;;22.30;9.93;;;;;;;10.85;100.00;101477.44;5027936;28;20040;-65
2023/03/21 04:05:03;;;;;;;23.73;10.25;;;;;;;10.44;100.00;101472.19;5027163;28;20073;-65
2023/03/21 04:07:28;;;;;;;19.80;9.57;;;;;;;10.17;100.00;101477.19;5029123;28;20980;-65
2023/03/21 04:09:54;;;;;;;19.23;9.88;;;;;;;10.16;100.00;101480.72;5028350;28;20037;-65
2023/03/21 04:12:19;;;;;;;21.17;9.90;;;;;;;10.07;100.00;101471.28;5028492;28;20025;-65
2023/03/21 04:14:45;;;;;;;24.80;9.48;;;;;;;10.08;100.00;101467.72;5021886;28;20464;-65
2023/03/21 04:17:10;;;;;;;21.05;10.02;;;;;;;10.09;100.00;101465.97;5008987;28;20092;-66
2023/03/21 04:19:35;;;;;;;20.73;9.77;;;;;;;10.03;100.00;101468.72;5008501;28;20118;-65
2023/03/21 04:22:01;;;;;;;20.95;10.07;;;;;;;10.02;100.00;101467.84;5018889;28;20160;-65
2023/03/21 04:24:26;;;;;;;18.77;10.15;;;;;;;10.03;100.00;101464.34;5028746;28;20396;-65
2023/03/21 04:26:52;;;;;;;17.77;9.48;;;;;;;9.99;100.00;101463.53;5027866;28;20025;-65
2023/03/21 04:29:19;;;;;;;18.60;9.40;;;;;;;10.02;100.00;101467.00;5027494;28;20111;-66
2023/03/21 04:31:44;;;;;;;18.23;10.13;;;;;;;9.97;100.00;101462.69;5028964;28;20030;-66
2023/03/21 04:34:11;;;;;;;23.40;9.80;;;;;;;9.97;100.00;101456.56;5027568;28;20025;-66
2023/03/21 04:36:44;;;;;;;19.70;10.02;;;;;;;9.88;100.00;101455.00;5029022;28;20021;-66
2023/03/21 04:39:11;;;;;;;16.23;9.45;;;;;;;9.96;100.00;101449.56;5027413;28;20079;-65
2023/03/21 04:41:44;;;;;;;25.13;10.25;;;;;;;10.24;100.00;101449.81;5028398;28;20040;-65
2023/03/21 04:44:10;;;;;;;21.17;10.23;;;;;;;10.36;100.00;101453.09;5009849;28;20040;-66
2023/03/21 04:46:36;;;;;;;25.45;10.68;;;;;;;10.38;100.00;101446.00;5028502;28;20029;-65
2023/03/21 04:49:03;;;;;;;26.10;11.82;;;;;;;10.36;100.00;101446.03;5010931;28;20033;-65
2023/03/21 04:51:28;;;;;;;30.33;13.10;;;;;;;10.35;100.00;101446.94;5027025;28;20849;-65
2023/03/21 04:53:57;;;;;;;21.05;12.23;;;;;;;10.36;100.00;101440.75;5027362;28;20150;-64
2023/03/21 04:56:29;;;;;;;27.70;13.95;;;;;;;10.40;100.00;101435.41;5027784;28;20021;-64
2023/03/21 04:58:55;;;;;;;28.55;12.95;;;;;;;10.27;100.00;101438.38;5026634;28;20164;-65
2023/03/21 05:01:20;;;;;;;28.92;13.73;;;;;;;10.31;100.00;101445.28;5025645;28;20030;-65
2023/03/21 05:03:46;;;;;;;25.83;13.68;;;;;;;10.33;100.00;101434.72;5027647;28;20095;-64
2023/03/21 05:06:11;;;;;;;29.48;14.55;;;;;;;10.39;100.00;101436.34;5008976;28;20048;-65
2023/03/21 05:08:37;;;;;;;31.55;14.23;;;;;;;10.24;100.00;101431.38;5027454;28;20101;-65
2023/03/21 05:11:03;;;;;;;24.67;13.35;;;;;;;10.35;100.00;101433.78;5026757;28;20041;-65
2023/03/21 05:13:28;;;;;;;28.42;14.57;;;;;;;10.33;100.00;101429.44;5008710;28;20076;-68
2023/03/21 05:15:54;;;;;;;28.80;15.43;;;;;;;10.29;100.00;101425.16;5027005;28;20029;-65
2023/03/21 05:18:23;;;;;;;26.77;15.68;;;;;;;10.38;100.00;101426.72;5026362;28;20037;-64
2023/03/21 05:20:53;;;;;;;31.48;15.02;;;;;;;10.28;100.00;101426.91;5016818;28;20041;-67
2023/03/21 05:23:19;;;;;;;34.40;15.32;;;;;;;10.29;100.00;101430.44;5006209;28;20037;-65
2023/03/21 05:25:45;;;;;;;29.48;15.93;;;;;;;10.27;100.00;101425.19;5010605;28;20482;-65
2023/03/21 05:28:10;;;;;;;28.17;16.00;;;;;;;10.20;100.00;101428.84;5008549;28;20032;-65
2023/03/21 05:30:35;;;;;;;33.17;16.00;;;;;;;10.30;100.00;101430.38;5024094;28;20150;-65
2023/03/21 05:33:01;;;;;;;37.28;15.32;;;;;;;10.36;100.00;101430.22;5026553;28;20091;-65
2023/03/21 05:35:26;;;;;;;29.48;15.90;;;;;;;10.29;100.00;101428.63;5022382;28;20025;-64
2023/03/21 05:37:52;;;;;;;37.58;17.23;;;;;;;10.23;100.00;101429.66;5008379;28;20474;-65
2023/03/21 05:40:18;;;;;;;26.27;15.10;;;;;;;10.33;100.00;101430.28;5026841;28;20025;-64
2023/03/21 05:42:45;;;;;;;31.35;15.63;;;;;;;10.48;100.00;101428.25;5025892;28;20021;-65
2023/03/21 05:45:10;;;;;;;31.52;16.63;;;;;;;10.19;100.00;101421.84;5025309;28;20371;-66
2023/03/21 05:47:35;;;;;;;28.55;16.35;;;;;;;10.05;100.00;101435.34;5027308;28;20045;-64
2023/03/21 05:50:01;;;;;;;36.25;16.48;;;;;;;10.20;100.00;101423.56;5026647;28;20469;-67
2023/03/21 05:52:28;;;;;;;31.27;15.70;;;;;;;10.05;100.00;101425.66;5027021;28;20540;-65
2023/03/21 05:54:53;;;;;;;31.30;15.63;;;;;;;10.24;100.00;101430.53;5025527;28;20671;-65
2023/03/21 05:57:19;;;;;;;29.50;15.27;;;;;;;10.28;100.00;101431.31;5026036;28;20030;-66
2023/03/21 05:59:44;;;;;;;32.03;16.33;;;;;;;10.38;100.00;101421.44;5025479;28;20055;-65
2023/03/21 06:02:10;;;;;;;29.83;15.57;;;;;;;10.35;100.00;101423.22;5007561;28;20029;-66
2023/03/21 06:04:35;;;;;;;25.63;14.43;;;;;;;10.38;100.00;101424.06;5008564;28;20639;-66
2023/03/21 06:07:01;;;;;;;30.23;14.60;;;;;;;10.37;100.00;101431.09;5008076;28;20025;-64
2023/03/21 06:09:26;;;;;;;29.80;15.23;;;;;;;10.47;100.00;101426.50;5025382;28;20067;-64
2023/03/21 06:11:53;;;;;;;26.95;13.57;;;;;;;10.11;100.00;101433.44;5026940;28;20026;-66
2023/03/21 06:14:18;;;;;;;29.98;14.63;;;;;;;10.00;100.00;101422.28;5007425;28;20124;-65
2023/03/21 06:16:44;;;;;;;25.55;14.55;;;;;;;10.06;100.00;101432.66;5025990;28;20045;-66
2023/03/21 06:19:09;;;;;;;27.30;14.02;;;;;;;9.96;100.00;101432.00;5026278;28;20030;-64
2023/03/21 06:21:35;;;;;;;28.15;14.70;;;;;;;9.98;100.00;101432.84;5026096;28;20129;-63
2023/03/21 06:24:00;;;;;;;25.33;13.23;;;;;;;10.04;100.00;101433.59;5026625;28;20729;-64
2023/03/21 06:26:25;;;;;;;22.85;12.50;;;;;;;10.03;100.00;101435.38;5026024;28;20025;-64
2023/03/21 06:28:52;;;;;;;23.52;13.48;;;;;;;9.97;100.00;101443.41;5007315;28;20033;-64
2023/03/21 06:31:17;;;;;;;28.52;14.40;;;;;;;9.99;100.00;101436.31;5025970;28;20159;-64
2023/03/21 06:33:43;;;;;;;27.00;12.85;;;;;;;10.40;100.00;101438.06;5025680;28;20489;-64
2023/03/21 06:36:09;;;;;;;28.73;12.48;;;;;;;10.52;100.00;101435.16;5026536;28;20474;-67
2023/03/21 06:38:36;;;;;;;25.80;12.50;;;;;;;10.63;100.00;101431.41;5026456;28;20044;-65
2023/03/21 06:41:03;;;;;;;25.70;11.88;;;;;;;10.60;100.00;101433.19;5025673;28;20033;-65
2023/03/21 06:43:30;;;;;;;27.50;12.30;;;;;;;10.66;100.00;101433.97;5025189;28;20033;-64
2023/03/21 06:45:55;;;;;;;21.25;11.93;;;;;;;10.68;100.00;101435.66;5025204;28;20025;-64
2023/03/21 06:48:21;;;;;;;23.23;11.50;;;;;;;10.71;100.00;101432.06;5018442;28;20034;-63
2023/03/21 06:50:48;;;;;;;26.05;12.25;;;;;;;10.67;100.00;101438.31;5027932;28;20025;-66
2023/03/21 06:53:13;;;;;;;25.33;11.55;;;;;;;10.72;100.00;101436.47;5017935;28;20076;-65
2023/03/21 06:55:38;;;;;;;21.80;12.05;;;;;;;10.62;100.00;101430.53;5020450;28;20026;-65
2023/03/21 06:58:04;;;;;;;28.27;11.57;;;;;;;10.65;100.00;101422.56;5020364;28;20026;-63
2023/03/21 07:00:29;;;;;;;23.65;10.18;;;;;;;10.64;100.00;101418.19;5018400;28;20079;-64
2023/03/21 07:02:54;;;;;;;17.70;10.35;;;;;;;10.66;100.00;101426.06;5020182;28;20017;-64
2023/03/21 07:05:20;;;;;;;20.45;9.95;;;;;;;10.66;100.00;101421.66;5025560;28;20072;-63
2023/03/21 07:07:45;;;;;;;19.23;10.60;;;;;;;10.61;100.00;101408.59;5023430;28;20697;-63
2023/03/21 07:10:11;;;;;;;22.63;10.02;;;;;;;10.62;100.00;101414.72;5022848;28;20124;-62
2023/03/21 07:12:36;;;;;;;20.95;10.10;;;;;;;10.62;100.00;101406.81;5016885;28;20030;-61
2023/03/21 07:15:03;;;;;;;27.30;10.18;;;;;;;10.61;100.00;101398.06;5017162;28;20045;-63
2023/03/21 07:17:28;;;;;;;20.80;10.15;;;;;;;10.61;100.00;101392.78;5026624;28;20060;-63
2023/03/21 07:19:54;;;;;;;20.67;9.23;;;;;;;10.67;100.00;101390.88;5013583;28;20132;-61
2023/03/21 07:22:19;;;;;;;24.73;10.60;;;;;;;10.68;100.00;101390.84;5009199;28;20088;-62
2023/03/21 07:24:47;;;;;;;20.77;8.98;;;;;;;10.72;100.00;101389.00;5024162;28;20029;-65
2023/03/21 07:27:14;;;;;;;19.95;9.57;;;;;;;10.75;100.00;101394.22;5010223;28;20025;-64
2023/03/21 07:29:40;;;;;;;20.35;9.73;;;;;;;10.83;100.00;101393.97;5011174;28;20048;-62
2023/03/21 07:32:05;;;;;;;26.65;10.13;;;;;;;10.82;100.00;101401.06;5028408;28;20104;-61
2023/03/21 07:34:32;;;;;;;19.40;10.25;;;;;;;10.77;100.00;101402.09;5029003;28;20060;-61
2023/03/21 07:36:58;;;;;;;30.65;9.18;;;;;;;10.85;100.00;101394.81;5028385;28;20029;-61
2023/03/21 07:39:24;;;;;;;24.65;9.27;;;;;;;10.84;100.00;101393.94;5008808;28;20049;-62
2023/03/21 07:41:50;;;;;;;20.63;8.40;;;;;;;10.88;100.00;101394.75;5028352;28;20744;-62
2023/03/21 07:44:15;;;;;;;22.30;8.75;;;;;;;10.93;100.00;101397.25;5025649;28;20294;-62
2023/03/21 07:46:41;;;;;;;23.63;9.38;;;;;;;10.97;100.00;101386.59;5027659;28;20028;-65
2023/03/21 07:49:07;;;;;;;18.83;8.73;;;;;;;11.09;100.00;101390.69;5019035;28;20029;-63
2023/03/21 07:51:34;;;;;;;18.63;8.85;;;;;;;10.97;100.00;101383.09;5017375;28;20024;-65
2023/03/21 07:54:00;;;;;;;19.90;8.85;;;;;;;11.03;100.00;101390.84;4994722;28;20132;-65
2023/03/21 07:56:25;;;;;;;26.83;8.88;;;;;;;10.95;100.00;101388.41;5014016;28;20109;-64
2023/03/21 07:58:50;;;;;;;21.08;9.02;;;;;;;10.98;100.00;101382.16;5017041;28;20108;-63
2023/03/21 08:01:16;;;;;;;14.35;8.80;;;;;;;10.83;100.00;101384.31;4995323;28;20053;-63
2023/03/21 08:03:42;;;;;;;18.00;8.80;;;;;;;10.51;100.00;101375.47;5015182;28;20030;-62
2023/03/21 08:06:08;;;;;;;26.67;9.73;;;;;;;10.86;100.00;101375.47;5027170;28;20025;-64
2023/03/21 08:08:33;;;;;;;21.65;8.98;;;;;;;11.07;100.00;101367.88;5010483;28;20045;-64
2023/03/21 08:10:58;;;;;;;25.65;9.15;;;;;;;11.01;100.00;101370.69;5006227;28;20041;-67
2023/03/21 08:13:24;;;;;;;22.05;8.85;;;;;;;11.16;100.00;101372.91;5015463;28;20030;-64
2023/03/21 08:15:50;;;;;;;17.20;8.40;;;;;;;11.36;100.00;101369.72;5000794;28;20025;-62
2023/03/21 08:18:15;;;;;;;14.50;8.00;;;;;;;11.46;100.00;101362.38;5016566;28;20025;-63
2023/03/21 08:20:41;;;;;;;20.38;8.15;;;;;;;11.58;100.00;101363.78;5018861;28;20017;-64
2023/03/21 08:23:06;;;;;;;15.60;7.93;;;;;;;11.66;100.00;101357.41;5016506;28;20063;-63
2023/03/21 08:25:32;;;;;;;21.60;8.15;;;;;;;11.92;100.00;101356.59;5015255;28;20235;-64
2023/03/21 08:27:57;;;;;;;19.17;8.38;;;;;;;11.87;100.00;101359.38;5016199;28;20505;-63
2023/03/21 08:30:24;;;;;;;13.48;7.30;;;;;;;12.11;100.00;101356.94;5015402;28;20026;-64
2023/03/21 08:32:50;;;;;;;15.98;6.80;;;;;;;11.98;100.00;101345.84;4998840;28;20022;-63
2023/03/21 08:35:17;;;;;;;17.35;7.50;;;;;;;11.97;100.00;101338.84;5000020;28;20021;-65
2023/03/21 08:37:43;;;;;;;10.70;6.22;;;;;;;12.12;100.00;101337.53;5021269;28;20022;-64
2023/03/21 08:40:12;;;;;;;19.80;6.13;;;;;;;12.25;100.00;101339.75;5014552;28;20030;-65
2023/03/21 08:42:38;;;;;;;;;;;;;;;12.35;100.00;101343.84;5017120;28;20503;-65
2023/03/21 08:45:04;;;;;;;15.95;5.38;;;;;;;12.40;100.00;101334.91;5017673;28;19924;-63
2023/03/21 08:47:30;;;;;;;10.90;4.70;;;;;;;12.46;100.00;101337.34;5014731;28;20100;-65
2023/03/21 08:49:56;;;;;;;13.40;5.25;;;;;;;12.68;100.00;101339.22;5021981;28;20105;-66
2023/03/21 08:52:21;;;;;;;11.30;5.07;;;;;;;12.61;100.00;101336.78;5017292;28;20025;-66
2023/03/21 08:54:47;;;;;;;8.85;4.72;;;;;;;12.74;100.00;101331.09;5014104;28;20014;-64
2023/03/21 08:57:13;;;;;;;12.82;5.47;;;;;;;12.95;100.00;101321.53;5017212;28;20036;-63
2023/03/21 08:59:39;;;;;;;11.07;4.80;;;;;;;13.03;100.00;101326.53;4999675;28;20434;-66
2023/03/21 09:02:05;;;;;;;10.80;4.95;;;;;;;13.32;100.00;101318.41;5022465;28;20037;-65
2023/03/21 09:04:30;;;;;;;13.18;4.95;;;;;;;13.02;100.00;101324.81;5014300;28;20088;-65
2023/03/21 09:06:56;;;;;;;15.70;6.22;;;;;;;12.71;100.00;101317.97;5015122;28;20028;-65
2023/03/21 09:09:21;;;;;;;16.08;6.43;;;;;;;12.66;100.00;101322.53;5016007;28;20025;-64
2023/03/21 09:11:47;;;;;;;13.05;5.95;;;;;;;12.67;100.00;101311.06;5016359;28;20101;-64
2023/03/21 09:14:12;;;;;;;17.23;6.00;;;;;;;12.49;100.00;101302.84;5017179;28;20031;-64
2023/03/21 09:16:37;;;;;;;15.45;6.40;;;;;;;12.64;100.00;101298.81;5020050;28;20505;-64
2023/03/21 09:19:03;;;;;;;15.50;6.10;;;;;;;12.47;100.00;101304.69;5015307;28;20017;-65
2023/03/21 09:21:29;;;;;;;14.57;6.32;;;;;;;12.95;100.00;101307.44;4998479;28;20121;-65
2023/03/21 09:23:57;;;;;;;15.65;6.57;;;;;;;13.19;100.00;101303.03;5015250;28;20022;-64
2023/03/21 09:26:23;;;;;;;13.70;6.53;;;;;;;13.21;100.00;101300.28;4997780;28;20428;-64
2023/03/21 09:28:49;;;;;;;16.23;7.00;;;;;;;13.51;100.00;101297.44;4995999;28;20048;-63
2023/03/21 09:31:21;;;;;;;13.02;6.45;;;;;;;13.44;100.00;101296.78;5016816;28;20401;-64
2023/03/21 09:33:50;;;;;;;15.35;7.55;;;;;;;13.31;100.00;101290.25;5019784;28;20025;-64
2023/03/21 09:36:17;;;;;;;16.70;6.88;;;;;;;13.55;100.00;101295.53;5014035;28;20022;-64
2023/03/21 09:38:44;;;;;;;14.40;6.75;;;;;;;13.72;100.00;101289.56;5015392;28;20028;-64
2023/03/21 09:41:31;;;;;;;16.05;7.22;;;;;;;13.64;100.00;101293.38;5024282;28;20028;-63
2023/03/21 09:44:33;;;;;;;18.17;7.47;;;;;;;13.75;100.00;101295.59;5025476;28;20033;-64
2023/03/21 09:47:31;;;;;;;16.95;7.38;;;;;;;13.87;100.00;101296.91;5007675;28;20037;-65
2023/03/21 09:50:03;;;;;;;17.40;7.70;;;;;;;13.92;100.00;101295.84;5001727;28;20041;-65
2023/03/21 09:52:33;;;;;;;14.88;7.45;;;;;;;13.88;100.00;101289.81;5007564;28;20032;-65
2023/03/21 09:54:59;;;;;;;14.70;7.18;;;;;;;13.90;100.00;101294.13;5008958;28;20897;-63
2023/03/21 09:57:31;;;;;;;18.05;7.15;;;;;;;13.77;100.00;101284.94;5024992;28;20045;-65
2023/03/21 10:00:10;;;;;;;15.60;7.30;;;;;;;13.76;100.00;101292.03;5008273;28;20025;-64
2023/03/21 10:02:45;;;;;;;14.15;7.60;;;;;;;13.89;100.00;101296.84;5018368;28;20033;-64
2023/03/21 10:05:21;;;;;;;14.75;7.65;;;;;;;14.06;100.00;101296.13;5013886;28;20100;-63
2023/03/21 10:08:07;;;;;;;19.20;8.00;;;;;;;14.02;100.00;101289.25;5019363;28;20045;-64
2023/03/21 10:10:36;;;;;;;15.85;7.55;;;;;;;14.19;100.00;101290.31;5008954;28;20026;-64
2023/03/21 10:13:02;;;;;;;17.40;7.40;;;;;;;14.29;100.00;101286.34;5024284;28;20029;-63
2023/03/21 10:15:27;;;;;;;15.23;7.25;;;;;;;14.33;100.00;101272.03;5007579;28;20486;-64
2023/03/21 10:18:00;;;;;;;16.55;6.60;;;;;;;14.52;100.00;101280.09;5025738;28;20128;-64
2023/03/21 10:20:30;;;;;;;13.95;6.55;;;;;;;14.48;100.00;101282.94;5025396;28;20557;-65
2023/03/21 10:22:58;;;;;;;16.13;7.18;;;;;;;14.48;100.00;101285.59;5008882;28;20025;-65
2023/03/21 10:25:29;;;;;;;15.97;7.30;;;;;;;14.31;100.00;101299.53;5028185;28;20021;-65
2023/03/21 10:27:55;;;;;;;15.88;7.40;;;;;;;14.30;100.00;101300.47;5011498;28;20291;-64
2023/03/21 10:30:25;;;;;;;15.88;7.55;;;;;;;14.20;100.00;101305.28;5012709;28;20021;-64
2023/03/21 10:32:50;;;;;;;19.88;8.15;;;;;;;14.00;100.00;101299.06;5012424;28;20060;-64
2023/03/21 10:35:16;;;;;;;17.92;7.95;;;;;;;13.98;100.00;101316.78;5029602;28;20493;-64
2023/03/21 10:37:42;;;;;;;12.95;7.32;;;;;;;13.99;100.00;101323.81;5028822;28;20414;-65
2023/03/21 10:40:14;;;;;;;19.27;7.68;;;;;;;13.99;100.00;101311.44;5028793;28;20021;-66
2023/03/21 10:42:41;;;;;;;17.27;6.88;;;;;;;14.07;100.00;101308.47;5027225;28;20022;-65
2023/03/21 10:45:13;;;;;;;23.38;7.60;;;;;;;14.23;100.00;101310.47;5028389;28;20079;-65
2023/03/21 10:47:38;;;;;;;17.05;7.22;;;;;;;14.32;100.00;101306.56;5029255;28;20504;-66
2023/03/21 10:50:12;;;;;;;15.57;5.57;;;;;;;14.31;100.00;101296.91;5029010;28;20053;-62
2023/03/21 10:52:44;;;;;;;21.75;6.45;;;;;;;14.22;100.00;101304.31;5030120;28;20018;-65
2023/03/21 10:55:30;;;;;;;12.35;6.28;;;;;;;14.11;100.00;101294.16;5023607;28;20029;-65
2023/03/21 10:58:12;;;;;;;14.23;6.55;;;;;;;14.23;100.00;101287.47;5004987;28;20026;-64
2023/03/21 11:00:40;;;;;;;18.77;6.63;;;;;;;14.16;100.00;101280.72;5032573;28;20033;-65
2023/03/21 11:03:06;;;;;;;15.05;5.97;;;;;;;14.20;100.00;101284.09;5021289;28;20033;-64
2023/03/21 11:05:37;;;;;;;18.80;7.63;;;;;;;14.15;100.00;101274.56;5002539;28;20036;-65
2023/03/21 11:08:10;;;;;;;20.83;7.70;;;;;;;13.98;100.00;101269.09;5027316;28;20115;-64
2023/03/21 11:10:48;;;;;;;16.38;7.97;;;;;;;14.01;100.00;101267.19;5008592;28;20037;-66
2023/03/21 11:13:22;;;;;;;23.42;7.80;;;;;;;13.99;100.00;101266.38;5025594;28;20021;-65